createdAt,value
2022-11-20T00:01:21.433Z,75.45
2022-11-20T00:03:49.369Z,74.74
2022-11-20T00:06:18.810Z,74.45
2022-11-20T00:08:47.194Z,74.77
2022-11-20T00:11:17.240Z,74.92
2022-11-20T00:13:45.602Z,75.98
2022-11-20T00:16:15.803Z,74.96
2022-11-20T00:18:43.643Z,73.97
2022-11-20T00:21:13.599Z,75.68
2022-11-20T00:23:42.454Z,74.31
2022-11-20T00:26:13.447Z,74.31
2022-11-20T00:28:41.656Z,74.52
2022-11-20T00:31:19.107Z,74.72
2022-11-20T00:33:47.460Z,74.59
2022-11-20T00:36:20.236Z,74.20
2022-11-20T00:38:48.498Z,72.99
2022-11-20T00:41:17.222Z,73.39
2022-11-20T00:43:44.706Z,73.37
2022-11-20T00:46:23.776Z,73.02
2022-11-20T00:48:51.519Z,73.92
2022-11-20T00:51:21.958Z,74.19
2022-11-20T00:53:49.612Z,72.55
2022-11-20T00:56:19.339Z,74.14
2022-11-20T00:58:48.883Z,73.20
2022-11-20T01:01:27.678Z,72.98
2022-11-20T01:03:58.193Z,74.00
2022-11-20T01:06:35.652Z,73.29
2022-11-20T01:09:08.777Z,73.38
2022-11-20T01:11:39.282Z,73.77
2022-11-20T01:14:10.258Z,73.21
2022-11-20T01:16:40.047Z,74.73
2022-11-20T01:19:17.311Z,74.03
2022-11-20T01:21:47.063Z,75.12
2022-11-20T01:24:16.989Z,74.18
2022-11-20T01:26:45.710Z,74.92
2022-11-20T01:29:22.385Z,74.63
2022-11-20T01:31:50.894Z,74.22
2022-11-20T01:34:20.349Z,73.69
2022-11-20T01:36:49.337Z,74.85
2022-11-20T01:39:23.239Z,74.61
2022-11-20T01:42:11.139Z,74.87
2022-11-20T01:44:50.140Z,75.04
2022-11-20T01:47:36.194Z,74.08
2022-11-20T01:50:17.390Z,74.91
2022-11-20T01:53:00.553Z,74.95
2022-11-20T01:55:33.192Z,75.29
2022-11-20T01:58:02.315Z,75.57
2022-11-20T02:00:29.995Z,75.18
2022-11-20T02:03:08.622Z,74.98
2022-11-20T02:05:47.553Z,76.24
2022-11-20T02:08:15.499Z,75.35
2022-11-20T02:10:42.981Z,74.34
2022-11-20T02:13:29.050Z,75.09
2022-11-20T02:15:56.685Z,75.69
2022-11-20T02:18:25.332Z,74.86
2022-11-20T02:21:07.434Z,75.35
2022-11-20T02:23:44.588Z,74.26
2022-11-20T02:26:17.081Z,75.06
2022-11-20T02:28:44.661Z,74.56
2022-11-20T02:31:12.196Z,74.86
2022-11-20T02:33:39.726Z,74.52
2022-11-20T02:36:12.568Z,74.02
2022-11-20T02:38:40.156Z,73.59
2022-11-20T02:41:07.678Z,73.63
2022-11-20T02:43:35.287Z,74.94
2022-11-20T02:46:02.875Z,73.41
2022-11-20T02:48:33.798Z,73.26
2022-11-20T02:51:01.983Z,73.76
2022-11-20T02:53:29.585Z,73.69
2022-11-20T02:55:57.051Z,73.73
2022-11-20T02:58:25.267Z,74.16
2022-11-20T03:00:53.501Z,74.72
2022-11-20T03:03:21.242Z,73.43
2022-11-20T03:05:48.708Z,74.37
2022-11-20T03:08:16.259Z,74.36
2022-11-20T03:10:44.043Z,73.81
2022-11-20T03:13:11.562Z,74.22
2022-11-20T03:15:39.011Z,74.31
2022-11-20T03:18:06.893Z,73.93
2022-11-20T03:20:34.943Z,74.20
2022-11-20T03:23:02.533Z,73.87
2022-11-20T03:25:30.073Z,73.15
2022-11-20T03:27:57.576Z,73.31
2022-11-20T03:30:29.162Z,73.43
2022-11-20T03:32:58.038Z,73.66
2022-11-20T03:35:25.606Z,72.66
2022-11-20T03:37:53.114Z,72.33
2022-11-20T03:40:20.650Z,73.13
2022-11-20T03:42:48.258Z,72.25
2022-11-20T03:45:19.353Z,72.17
2022-11-20T03:47:47.185Z,72.65
2022-11-20T03:50:15.195Z,72.91
2022-11-20T03:52:43.095Z,73.41
2022-11-20T03:55:10.741Z,73.19
2022-11-20T03:57:38.356Z,74.01
2022-11-20T04:00:07.745Z,73.30
2022-11-20T04:02:35.316Z,73.43
2022-11-20T04:05:02.838Z,74.38
2022-11-20T04:07:30.944Z,74.99
2022-11-20T04:09:58.562Z,73.06
2022-11-20T04:12:26.091Z,73.40
2022-11-20T04:14:53.669Z,73.39
2022-11-20T04:17:21.190Z,74.34
2022-11-20T04:19:49.321Z,73.98
2022-11-20T04:22:16.745Z,73.74
2022-11-20T04:24:44.227Z,73.12
2022-11-20T04:27:12.027Z,72.67
2022-11-20T04:29:39.555Z,73.38
2022-11-20T04:32:07.192Z,72.53
2022-11-20T04:34:34.721Z,72.02
2022-11-20T04:37:02.335Z,71.88
2022-11-20T04:39:29.853Z,71.63
2022-11-20T04:42:15.919Z,71.60
2022-11-20T04:44:43.426Z,71.38
2022-11-20T04:47:10.960Z,73.10
2022-11-20T04:49:38.525Z,71.56
2022-11-20T04:52:06.009Z,72.66
2022-11-20T04:54:33.424Z,72.30
2022-11-20T04:57:00.935Z,72.70
2022-11-20T04:59:28.419Z,72.08
2022-11-20T05:01:56.392Z,72.15
2022-11-20T05:04:24.185Z,71.71
2022-11-20T05:06:51.821Z,71.18
2022-11-20T05:09:19.537Z,72.17
2022-11-20T05:11:51.226Z,70.49
2022-11-20T05:14:19.070Z,72.62
2022-11-20T05:16:46.669Z,70.69
2022-11-20T05:19:14.179Z,71.25
2022-11-20T05:21:41.754Z,72.49
2022-11-20T05:24:09.248Z,72.49
2022-11-20T05:26:36.933Z,70.37
2022-11-20T05:29:05.080Z,70.70
2022-11-20T05:31:32.763Z,70.97
2022-11-20T05:34:00.232Z,71.06
2022-11-20T05:36:27.721Z,70.63
2022-11-20T05:39:00.934Z,71.41
2022-11-20T05:41:28.754Z,71.42
2022-11-20T05:43:57.193Z,71.30
2022-11-20T05:46:28.173Z,71.83
2022-11-20T05:48:58.355Z,72.39
2022-11-20T05:51:26.803Z,71.60
2022-11-20T05:53:54.536Z,71.57
2022-11-20T05:56:22.964Z,71.75
2022-11-20T05:58:51.072Z,71.51
2022-11-20T06:01:25.190Z,71.96
2022-11-20T06:03:54.630Z,72.76
2022-11-20T06:06:22.442Z,73.42
2022-11-20T06:08:50.539Z,73.95
2022-11-20T06:11:18.567Z,73.54
2022-11-20T06:13:46.799Z,73.32
2022-11-20T06:16:17.594Z,74.03
2022-11-20T06:18:46.349Z,73.62
2022-11-20T06:21:25.040Z,74.66
2022-11-20T06:23:53.819Z,73.60
2022-11-20T06:26:25.130Z,72.95
2022-11-20T06:28:53.576Z,72.10
2022-11-20T06:31:25.030Z,73.74
2022-11-20T06:33:52.907Z,72.93
2022-11-20T06:36:22.764Z,73.26
2022-11-20T06:38:50.455Z,72.59
2022-11-20T06:41:21.253Z,72.83
2022-11-20T06:43:49.723Z,72.27
2022-11-20T06:46:18.911Z,74.03
2022-11-20T06:48:47.454Z,74.10
2022-11-20T06:51:15.275Z,73.34
2022-11-20T06:53:42.878Z,73.06
2022-11-20T06:56:10.588Z,72.80
2022-11-20T06:58:38.842Z,71.99
2022-11-20T07:01:15.137Z,72.17
2022-11-20T07:03:43.598Z,72.39
2022-11-20T07:06:11.136Z,71.32
2022-11-20T07:08:38.621Z,71.63
2022-11-20T07:11:08.282Z,71.54
2022-11-20T07:13:35.861Z,72.87
2022-11-20T07:16:06.736Z,74.04
2022-11-20T07:18:35.177Z,74.98
2022-11-20T07:21:04.332Z,73.66
2022-11-20T07:23:32.342Z,73.89
2022-11-20T07:26:12.637Z,74.35
2022-11-20T07:28:40.259Z,73.95
2022-11-20T07:31:08.496Z,74.59
2022-11-20T07:33:36.191Z,74.45
2022-11-20T07:36:04.335Z,75.12
2022-11-20T07:38:32.052Z,73.99
2022-11-20T07:41:02.416Z,73.79
2022-11-20T07:43:30.410Z,75.50
2022-11-20T07:45:59.656Z,72.75
2022-11-20T07:48:27.454Z,73.19
2022-11-20T07:50:56.300Z,71.75
2022-11-20T07:53:24.730Z,71.94
2022-11-20T07:55:55.036Z,71.49
2022-11-20T07:58:22.949Z,71.82
2022-11-20T08:00:50.619Z,72.48
2022-11-20T08:03:24.386Z,71.11
2022-11-20T08:05:52.631Z,68.95
2022-11-20T08:08:20.854Z,69.79
2022-11-20T08:10:48.416Z,69.54
2022-11-20T08:13:34.593Z,70.28
2022-11-20T08:16:02.224Z,69.29
2022-11-20T08:18:31.794Z,69.80
2022-11-20T08:21:04.615Z,70.99
2022-11-20T08:23:32.425Z,70.84
2022-11-20T08:25:59.925Z,70.69
2022-11-20T08:28:27.543Z,70.43
2022-11-20T08:31:00.382Z,71.58
2022-11-20T08:33:28.329Z,71.06
2022-11-20T08:36:00.354Z,72.05
2022-11-20T08:38:27.848Z,71.70
2022-11-20T08:41:21.948Z,71.29
2022-11-20T08:43:50.342Z,69.60
2022-11-20T08:46:18.337Z,70.94
2022-11-20T08:48:46.298Z,69.58
2022-11-20T08:51:14.654Z,71.02
2022-11-20T08:53:42.884Z,70.05
2022-11-20T08:56:11.098Z,69.13
2022-11-20T08:59:09.941Z,70.45
2022-11-20T09:01:28.253Z,68.98
2022-11-20T09:03:57.929Z,68.59
2022-11-20T09:06:25.479Z,69.66
2022-11-20T09:08:54.282Z,68.69
2022-11-20T09:11:22.992Z,68.28
2022-11-20T09:13:50.755Z,68.09
2022-11-20T09:16:18.309Z,68.33
2022-11-20T09:18:45.861Z,68.30
2022-11-20T09:21:15.035Z,70.05
2022-11-20T09:23:42.630Z,70.95
2022-11-20T09:26:13.089Z,72.72
2022-11-20T09:28:41.227Z,71.20
2022-11-20T09:31:20.716Z,70.37
2022-11-20T09:33:48.238Z,70.53
2022-11-20T09:36:16.951Z,68.27
2022-11-20T09:38:44.854Z,68.98
2022-11-20T09:41:37.774Z,67.78
2022-11-20T09:44:26.801Z,67.81
2022-11-20T09:47:12.201Z,68.10
2022-11-20T09:49:55.049Z,67.62
2022-11-20T09:52:22.677Z,69.57
2022-11-20T09:54:51.566Z,66.41
2022-11-20T09:57:24.405Z,67.45
2022-11-20T10:00:00.374Z,67.48
2022-11-20T10:02:41.259Z,66.49
2022-11-20T10:05:11.975Z,65.06
2022-11-20T10:08:01.120Z,64.26
2022-11-20T10:10:43.812Z,62.77
2022-11-20T10:13:53.992Z,61.75
2022-11-20T10:16:37.989Z,59.30
2022-11-20T10:19:22.838Z,59.95
2022-11-20T10:21:56.334Z,58.11
2022-11-20T10:24:42.650Z,57.65
2022-11-20T10:27:44.123Z,55.32
2022-11-20T10:30:17.492Z,53.73
2022-11-20T10:32:53.110Z,49.74
2022-11-20T10:35:27.433Z,45.68
2022-11-20T10:38:01.726Z,44.66
2022-11-20T10:40:39.342Z,45.40
2022-11-20T10:43:13.367Z,44.93
2022-11-20T10:45:59.480Z,42.35
2022-11-20T10:48:29.366Z,42.81
2022-11-20T10:51:21.344Z,43.01
2022-11-20T10:54:10.333Z,41.71
2022-11-20T10:56:54.710Z,42.32
2022-11-20T10:59:27.864Z,43.23
2022-11-20T11:01:55.383Z,43.70
2022-11-20T11:04:41.751Z,46.19
2022-11-20T11:07:18.824Z,47.63
2022-11-20T11:09:55.129Z,49.55
2022-11-20T11:12:26.926Z,51.31
2022-11-20T11:14:57.110Z,49.46
2022-11-20T11:17:32.766Z,50.08
2022-11-20T11:20:22.723Z,51.33
2022-11-20T11:22:53.614Z,51.16
2022-11-20T11:25:23.997Z,51.75
2022-11-20T11:27:53.440Z,50.84
2022-11-20T11:30:21.930Z,52.96
2022-11-20T11:32:49.849Z,51.96
2022-11-20T11:35:26.623Z,53.52
2022-11-20T11:38:03.119Z,56.10
2022-11-20T11:40:34.098Z,55.42
2022-11-20T11:43:06.398Z,56.07
2022-11-20T11:45:33.958Z,55.83
2022-11-20T11:48:04.276Z,55.64
2022-11-20T11:50:32.762Z,57.94
2022-11-20T11:53:06.029Z,54.06
2022-11-20T11:55:58.437Z,56.02
2022-11-20T11:58:49.291Z,56.83
2022-11-20T12:01:35.470Z,54.93
2022-11-20T12:04:12.034Z,56.66
2022-11-20T12:06:45.130Z,58.77
2022-11-20T12:09:13.484Z,58.87
2022-11-20T12:12:06.108Z,57.45
2022-11-20T12:14:33.577Z,57.32
2022-11-20T12:17:02.913Z,59.54
2022-11-20T12:19:34.518Z,59.74
2022-11-20T12:22:18.415Z,59.67
2022-11-20T12:25:10.923Z,60.44
2022-11-20T12:27:46.235Z,60.01
2022-11-20T12:30:15.628Z,60.37
2022-11-20T12:33:20.099Z,60.84
2022-11-20T12:36:00.182Z,62.34
2022-11-20T12:38:46.707Z,62.09
2022-11-20T12:41:54.625Z,61.91
2022-11-20T12:44:55.883Z,62.27
2022-11-20T12:47:37.308Z,62.19
2022-11-20T12:50:29.277Z,62.32
2022-11-20T12:53:17.260Z,62.20
2022-11-20T12:55:56.589Z,61.56
2022-11-20T12:58:38.676Z,60.78
2022-11-20T13:01:43.448Z,60.63
2022-11-20T13:04:17.087Z,62.70
2022-11-20T13:06:45.640Z,61.97
2022-11-20T13:09:18.338Z,61.63
2022-11-20T13:12:04.178Z,60.80
2022-11-20T13:14:41.492Z,62.41
2022-11-20T13:17:23.658Z,62.70
2022-11-20T13:19:55.021Z,61.80
2022-11-20T13:22:31.099Z,62.08
2022-11-20T13:24:58.726Z,61.79
2022-11-20T13:27:26.310Z,61.83
2022-11-20T13:30:15.834Z,62.18
2022-11-20T13:33:24.075Z,63.74
2022-11-20T13:35:59.413Z,64.09
2022-11-20T13:38:30.023Z,62.76
2022-11-20T13:41:25.498Z,63.15
2022-11-20T13:43:53.786Z,62.29
2022-11-20T13:46:25.493Z,63.39
2022-11-20T13:48:55.309Z,63.00
2022-11-20T13:51:23.270Z,63.18
2022-11-20T13:54:41.550Z,64.02
2022-11-20T13:57:35.176Z,65.88
2022-11-20T14:00:21.094Z,64.71
2022-11-20T14:03:06.821Z,65.06
2022-11-20T14:05:39.771Z,65.38
2022-11-20T14:08:14.965Z,65.13
2022-11-20T14:10:42.661Z,64.93
2022-11-20T14:13:21.538Z,66.49
2022-11-20T14:15:57.972Z,67.63
2022-11-20T14:18:27.467Z,66.85
2022-11-20T14:20:55.362Z,65.16
2022-11-20T14:23:30.574Z,66.96
2022-11-20T14:25:58.320Z,65.39
2022-11-20T14:28:28.661Z,67.49
2022-11-20T14:30:57.733Z,66.75
2022-11-20T14:33:27.888Z,67.65
2022-11-20T14:35:58.501Z,66.98
2022-11-20T14:38:30.294Z,69.54
2022-11-20T14:41:18.854Z,68.88
2022-11-20T14:43:57.888Z,68.94
2022-11-20T14:46:25.980Z,69.12
2022-11-20T14:48:57.430Z,69.71
2022-11-20T14:51:32.713Z,71.67
2022-11-20T14:54:31.003Z,69.46
2022-11-20T14:57:01.147Z,69.18
2022-11-20T14:59:32.532Z,69.41
2022-11-20T15:02:07.348Z,69.83
2022-11-20T15:04:49.280Z,70.53
2022-11-20T15:07:41.147Z,70.99
2022-11-20T15:10:12.907Z,71.21
2022-11-20T15:12:52.228Z,72.57
2022-11-20T15:15:42.840Z,73.43
2022-11-20T15:18:42.595Z,73.51
2022-11-20T15:21:19.100Z,72.93
2022-11-20T15:23:46.812Z,73.34
2022-11-20T15:26:20.182Z,73.63
2022-11-20T15:28:50.962Z,73.68
2022-11-20T15:31:22.315Z,73.64
2022-11-20T15:33:50.648Z,75.45
2022-11-20T15:36:18.842Z,75.22
2022-11-20T15:38:46.668Z,75.49
2022-11-20T15:41:14.386Z,77.02
2022-11-20T15:43:41.992Z,76.37
2022-11-20T15:46:15.685Z,76.25
2022-11-20T15:48:48.213Z,76.35
2022-11-20T15:51:27.942Z,76.49
2022-11-20T15:53:56.892Z,76.71
2022-11-20T15:56:25.114Z,75.81
2022-11-20T15:58:53.180Z,75.71
2022-11-20T16:01:23.060Z,75.79
2022-11-20T16:03:51.000Z,76.89
2022-11-20T16:06:18.786Z,76.97
2022-11-20T16:08:47.046Z,76.77
2022-11-20T16:11:16.415Z,76.25
2022-11-20T16:14:05.216Z,76.83
2022-11-20T16:16:38.679Z,77.28
2022-11-20T16:19:06.486Z,77.05
2022-11-20T16:21:35.770Z,75.88
2022-11-20T16:24:06.789Z,75.63
2022-11-20T16:26:36.649Z,74.83
2022-11-20T16:29:07.524Z,73.24
2022-11-20T16:31:35.418Z,72.97
2022-11-20T16:34:11.511Z,72.59
2022-11-20T16:36:41.335Z,73.19
2022-11-20T16:39:09.022Z,72.55
2022-11-20T16:41:37.854Z,73.12
2022-11-20T16:44:10.802Z,73.25
2022-11-20T16:46:40.684Z,73.73
2022-11-20T16:49:13.906Z,73.18
2022-11-20T16:51:43.655Z,73.45
2022-11-20T16:54:15.020Z,74.45
2022-11-20T16:56:47.992Z,75.62
2022-11-20T16:59:15.861Z,73.66
2022-11-20T17:01:44.095Z,75.43
2022-11-20T17:04:12.145Z,75.85
2022-11-20T17:06:44.254Z,76.31
2022-11-20T17:09:13.804Z,75.69
2022-11-20T17:11:41.532Z,76.33
2022-11-20T17:14:11.896Z,76.76
2022-11-20T17:16:39.962Z,77.02
2022-11-20T17:19:08.305Z,77.03
2022-11-20T17:21:36.593Z,77.13
2022-11-20T17:24:09.169Z,77.06
2022-11-20T17:26:39.026Z,77.47
2022-11-20T17:29:15.543Z,77.49
2022-11-20T17:31:44.191Z,78.05
2022-11-20T17:34:14.375Z,78.70
2022-11-20T17:36:45.743Z,79.08
2022-11-20T17:39:15.226Z,79.31
2022-11-20T17:41:43.289Z,79.59
2022-11-20T17:44:12.870Z,78.33
2022-11-20T17:46:41.115Z,78.52
2022-11-20T17:49:08.916Z,78.24
2022-11-20T17:51:36.611Z,77.78
2022-11-20T17:54:07.478Z,78.36
2022-11-20T17:56:54.734Z,78.70
2022-11-20T17:59:22.626Z,78.81
2022-11-20T18:01:50.199Z,78.82
2022-11-20T18:04:18.100Z,77.70
2022-11-20T18:06:45.700Z,78.30
2022-11-20T18:09:13.399Z,78.78
2022-11-20T18:11:42.580Z,79.11
2022-11-20T18:14:37.351Z,78.76
2022-11-20T18:17:08.242Z,78.63
2022-11-20T18:19:42.592Z,78.40
2022-11-20T18:22:20.109Z,79.25
2022-11-20T18:24:47.888Z,78.96
2022-11-20T18:27:19.328Z,78.74
2022-11-20T18:29:52.346Z,78.91
2022-11-20T18:32:21.816Z,78.99
2022-11-20T18:34:50.254Z,78.31
2022-11-20T18:37:18.202Z,78.56
2022-11-20T18:39:46.042Z,79.09
2022-11-20T18:42:34.192Z,77.83
2022-11-20T18:45:04.529Z,77.91
2022-11-20T18:47:37.992Z,77.46
2022-11-20T18:50:07.969Z,77.08
2022-11-20T18:52:41.841Z,77.17
2022-11-20T18:55:10.135Z,77.37
2022-11-20T18:57:38.140Z,77.42
2022-11-20T19:00:09.558Z,78.34
2022-11-20T19:02:42.515Z,78.73
2022-11-20T19:05:12.954Z,79.64
2022-11-20T19:07:41.317Z,79.22
2022-11-20T19:10:09.989Z,78.70
2022-11-20T19:12:37.707Z,78.79
2022-11-20T19:15:06.222Z,79.33
2022-11-20T19:17:34.344Z,79.39
2022-11-20T19:20:02.479Z,79.86
2022-11-20T19:22:30.332Z,79.54
2022-11-20T19:25:00.919Z,80.03
2022-11-20T19:27:28.763Z,80.04
2022-11-20T19:30:03.095Z,79.96
2022-11-20T19:32:32.695Z,80.24
2022-11-20T19:35:00.724Z,80.38
2022-11-20T19:37:28.516Z,80.43
2022-11-20T19:39:59.536Z,80.37
2022-11-20T19:42:27.325Z,79.41
2022-11-20T19:44:55.123Z,79.51
2022-11-20T19:47:23.040Z,80.05
2022-11-20T19:49:52.721Z,80.21
2022-11-20T19:52:20.779Z,80.51
2022-11-20T19:54:48.539Z,80.98
2022-11-20T19:57:17.229Z,80.67
2022-11-20T19:59:45.047Z,81.02
2022-11-20T20:02:13.392Z,80.98
2022-11-20T20:04:41.146Z,80.21
2022-11-20T20:07:08.929Z,80.47
2022-11-20T20:09:36.735Z,80.95
2022-11-20T20:12:04.933Z,80.39
2022-11-20T20:14:32.810Z,80.87
2022-11-20T20:17:00.917Z,81.38
2022-11-20T20:19:28.730Z,81.37
2022-11-20T20:21:56.489Z,81.39
2022-11-20T20:24:24.238Z,81.47
2022-11-20T20:26:56.845Z,80.94
2022-11-20T20:29:26.891Z,80.63
2022-11-20T20:31:54.343Z,82.24
2022-11-20T20:34:23.432Z,81.53
2022-11-20T20:36:51.234Z,81.85
2022-11-20T20:39:19.757Z,80.69
2022-11-20T20:41:47.543Z,80.69
2022-11-20T20:44:34.567Z,80.91
2022-11-20T20:47:02.300Z,80.11
2022-11-20T20:49:30.066Z,79.97
2022-11-20T20:51:57.934Z,80.47
2022-11-20T20:54:29.242Z,80.70
2022-11-20T20:56:59.293Z,80.44
2022-11-20T20:59:27.073Z,80.67
2022-11-20T21:01:54.855Z,82.20
2022-11-20T21:04:22.968Z,81.67
2022-11-20T21:06:50.708Z,81.69
2022-11-20T21:09:20.310Z,80.50
2022-11-20T21:11:48.151Z,80.50
2022-11-20T21:14:15.740Z,80.32
2022-11-20T21:16:44.050Z,80.86
2022-11-20T21:19:11.708Z,79.93
2022-11-20T21:21:57.455Z,80.68
2022-11-20T21:24:33.406Z,79.97
2022-11-20T21:27:03.182Z,80.43
2022-11-20T21:29:31.034Z,79.60
2022-11-20T21:31:58.850Z,79.89
2022-11-20T21:34:26.831Z,80.41
2022-11-20T21:36:54.635Z,79.79
2022-11-20T21:39:22.301Z,79.68
2022-11-20T21:41:49.842Z,80.52
2022-11-20T21:44:31.046Z,80.37
2022-11-20T21:46:59.299Z,80.60
2022-11-20T21:49:26.992Z,79.99
2022-11-20T21:51:54.525Z,80.63
2022-11-20T21:54:22.305Z,80.47
2022-11-20T21:56:51.004Z,80.61
2022-11-20T21:59:18.587Z,80.39
2022-11-20T22:01:46.161Z,81.36
2022-11-20T22:04:15.405Z,80.24
2022-11-20T22:06:42.927Z,80.47
2022-11-20T22:09:11.098Z,81.65
2022-11-20T22:11:38.625Z,81.38
2022-11-20T22:14:21.476Z,81.31
2022-11-20T22:16:50.730Z,80.23
2022-11-20T22:19:20.571Z,79.89
2022-11-20T22:21:48.546Z,79.83
2022-11-20T22:24:20.698Z,80.68
2022-11-20T22:26:48.791Z,80.81
2022-11-20T22:29:21.195Z,79.96
2022-11-20T22:31:51.736Z,80.21
2022-11-20T22:34:19.229Z,80.39
2022-11-20T22:36:46.739Z,79.78
2022-11-20T22:39:14.337Z,80.15
2022-11-20T22:41:41.860Z,81.00
2022-11-20T22:44:13.724Z,79.87
2022-11-20T22:46:41.201Z,80.36
2022-11-20T22:49:09.220Z,79.88
2022-11-20T22:51:39.648Z,80.46
2022-11-20T22:54:07.960Z,80.20
2022-11-20T22:56:35.448Z,80.98
2022-11-20T22:59:04.754Z,80.36
2022-11-20T23:01:34.550Z,80.65
2022-11-20T23:04:04.909Z,80.11
2022-11-20T23:06:35.735Z,79.87
2022-11-20T23:09:05.836Z,80.20
2022-11-20T23:11:33.513Z,79.99
2022-11-20T23:14:04.449Z,80.32
2022-11-20T23:16:33.948Z,79.87
2022-11-20T23:19:07.922Z,79.71
2022-11-20T23:21:37.272Z,79.29
2022-11-20T23:24:05.341Z,80.01
2022-11-20T23:26:35.739Z,80.44
2022-11-20T23:29:04.919Z,80.14
2022-11-20T23:31:34.354Z,80.03
2022-11-20T23:34:02.032Z,79.84
2022-11-20T23:36:29.728Z,79.91
2022-11-20T23:38:57.283Z,79.90
2022-11-20T23:41:24.927Z,80.09
2022-11-20T23:43:53.388Z,79.54
2022-11-20T23:46:21.190Z,79.67
2022-11-20T23:48:48.719Z,79.85
2022-11-20T23:51:16.694Z,79.99
2022-11-20T23:53:44.301Z,80.15
2022-11-20T23:56:14.639Z,79.95
2022-11-20T23:58:42.978Z,80.00
